sensor_id;sensor_type;location;lat;lon;timestamp;pressure;altitude;pressure_sealevel;temperature;humidity
216;BME280;64590;48.81286795;9.14184224;2022-11-20T00:01:23;97764.75;;;6.57;83.99
216;BME280;64590;48.81286795;9.14184224;2022-11-20T00:03:51;97771.75;;;6.47;84.23
216;BME280;64590;48.81286795;9.14184224;2022-11-20T00:06:20;97768.78;;;6.66;83.51
216;BME280;64590;48.81286795;9.14184224;2022-11-20T00:08:48;97771.59;;;6.70;83.18
216;BME280;64590;48.81286795;9.14184224;2022-11-20T00:11:16;97767.34;;;6.83;82.88
216;BME280;64590;48.81286795;9.14184224;2022-11-20T00:13:44;97773.91;;;7.19;81.03
216;BME280;64590;48.81286795;9.14184224;2022-11-20T00:16:14;97769.06;;;7.02;80.99
216;BME280;64590;48.81286795;9.14184224;2022-11-20T00:18:41;97768.13;;;6.80;82.59
216;BME280;64590;48.81286795;9.14184224;2022-11-20T00:21:11;97771.13;;;6.61;82.78
216;BME280;64590;48.81286795;9.14184224;2022-11-20T00:23:40;97771.91;;;6.61;83.45
216;BME280;64590;48.81286795;9.14184224;2022-11-20T00:26:09;97762.69;;;6.46;83.44
216;BME280;64590;48.81286795;9.14184224;2022-11-20T00:28:35;97772.72;;;6.69;83.97
216;BME280;64590;48.81286795;9.14184224;2022-11-20T00:31:03;97768.13;;;6.80;83.48
216;BME280;64590;48.81286795;9.14184224;2022-11-20T00:33:30;97765.28;;;6.73;83.76
216;BME280;64590;48.81286795;9.14184224;2022-11-20T00:35:59;97754.34;;;6.84;83.43
216;BME280;64590;48.81286795;9.14184224;2022-11-20T00:38:27;97760.25;;;6.82;82.79
216;BME280;64590;48.81286795;9.14184224;2022-11-20T00:40:56;97757.09;;;6.80;83.67
216;BME280;64590;48.81286795;9.14184224;2022-11-20T00:43:24;97760.25;;;6.86;83.52
216;BME280;64590;48.81286795;9.14184224;2022-11-20T00:45:55;97758.41;;;6.97;82.49
216;BME280;64590;48.81286795;9.14184224;2022-11-20T00:48:22;97760.31;;;6.93;82.18
216;BME280;64590;48.81286795;9.14184224;2022-11-20T00:50:48;97761.09;;;6.90;82.39
216;BME280;64590;48.81286795;9.14184224;2022-11-20T00:53:15;97761.66;;;6.62;83.22
216;BME280;64590;48.81286795;9.14184224;2022-11-20T00:55:41;97763.78;;;6.79;82.31
216;BME280;64590;48.81286795;9.14184224;2022-11-20T00:58:09;97767.91;;;6.59;83.29
216;BME280;64590;48.81286795;9.14184224;2022-11-20T01:00:36;97766.03;;;6.66;83.40
216;BME280;64590;48.81286795;9.14184224;2022-11-20T01:03:03;97759.78;;;6.76;83.15
216;BME280;64590;48.81286795;9.14184224;2022-11-20T01:05:34;97761.09;;;6.90;82.87
216;BME280;64590;48.81286795;9.14184224;2022-11-20T01:08:00;97762.16;;;6.74;83.59
216;BME280;64590;48.81286795;9.14184224;2022-11-20T01:10:27;97765.75;;;6.78;83.37
216;BME280;64590;48.81286795;9.14184224;2022-11-20T01:12:54;97769.19;;;6.68;84.20
216;BME280;64590;48.81286795;9.14184224;2022-11-20T01:15:36;97765.44;;;6.91;82.66
216;BME280;64590;48.81286795;9.14184224;2022-11-20T01:18:02;97763.78;;;6.83;82.34
216;BME280;64590;48.81286795;9.14184224;2022-11-20T01:20:34;97776.00;;;6.82;82.35
216;BME280;64590;48.81286795;9.14184224;2022-11-20T01:23:00;97774.75;;;6.75;83.26
216;BME280;64590;48.81286795;9.14184224;2022-11-20T01:25:27;97779.53;;;6.78;83.21
216;BME280;64590;48.81286795;9.14184224;2022-11-20T01:27:53;97767.00;;;6.88;82.56
216;BME280;64590;48.81286795;9.14184224;2022-11-20T01:30:20;97777.59;;;6.83;83.56
216;BME280;64590;48.81286795;9.14184224;2022-11-20T01:32:48;97781.13;;;6.79;83.47
216;BME280;64590;48.81286795;9.14184224;2022-11-20T01:35:15;97784.75;;;6.91;82.81
216;BME280;64590;48.81286795;9.14184224;2022-11-20T01:37:41;97784.41;;;6.99;80.67
216;BME280;64590;48.81286795;9.14184224;2022-11-20T01:40:09;97789.72;;;6.71;82.13
216;BME280;64590;48.81286795;9.14184224;2022-11-20T01:42:36;97781.94;;;6.84;81.84
216;BME280;64590;48.81286795;9.14184224;2022-11-20T01:45:59;97781.31;;;6.57;83.63
216;BME280;64590;48.81286795;9.14184224;2022-11-20T01:48:30;97782.47;;;6.56;83.03
216;BME280;64590;48.81286795;9.14184224;2022-11-20T01:50:59;97781.31;;;6.60;82.79
216;BME280;64590;48.81286795;9.14184224;2022-11-20T01:53:31;97778.47;;;6.94;82.20
216;BME280;64590;48.81286795;9.14184224;2022-11-20T01:56:00;97778.91;;;6.51;83.15
216;BME280;64590;48.81286795;9.14184224;2022-11-20T01:58:32;97780.47;;;6.53;83.13
216;BME280;64590;48.81286795;9.14184224;2022-11-20T02:01:00;97774.09;;;6.45;82.62
216;BME280;64590;48.81286795;9.14184224;2022-11-20T02:03:28;97786.63;;;6.35;83.50
216;BME280;64590;48.81286795;9.14184224;2022-11-20T02:05:59;97781.91;;;6.39;83.39
216;BME280;64590;48.81286795;9.14184224;2022-11-20T02:08:28;97790.97;;;6.36;83.17
216;BME280;64590;48.81286795;9.14184224;2022-11-20T02:10:55;97783.19;;;6.49;82.93
216;BME280;64590;48.81286795;9.14184224;2022-11-20T02:13:22;97785.53;;;6.43;83.65
216;BME280;64590;48.81286795;9.14184224;2022-11-20T02:16:09;97780.19;;;6.61;83.23
216;BME280;64590;48.81286795;9.14184224;2022-11-20T02:18:38;97789.16;;;6.55;82.60
216;BME280;64590;48.81286795;9.14184224;2022-11-20T02:21:09;97789.13;;;6.51;83.26
216;BME280;64590;48.81286795;9.14184224;2022-11-20T02:23:53;97787.53;;;6.50;83.87
216;BME280;64590;48.81286795;9.14184224;2022-11-20T02:26:20;97785.81;;;6.35;83.86
216;BME280;64590;48.81286795;9.14184224;2022-11-20T02:28:49;97787.75;;;6.75;82.31
216;BME280;64590;48.81286795;9.14184224;2022-11-20T02:31:16;97780.66;;;6.74;79.83
216;BME280;64590;48.81286795;9.14184224;2022-11-20T02:33:43;97783.50;;;6.81;79.80
216;BME280;64590;48.81286795;9.14184224;2022-11-20T02:36:12;97782.69;;;6.80;79.59
216;BME280;64590;48.81286795;9.14184224;2022-11-20T02:38:41;97787.38;;;6.76;80.15
216;BME280;64590;48.81286795;9.14184224;2022-11-20T02:41:09;97782.28;;;6.78;79.96
216;BME280;64590;48.81286795;9.14184224;2022-11-20T02:43:36;97778.94;;;6.55;80.11
216;BME280;64590;48.81286795;9.14184224;2022-11-20T02:46:03;97776.03;;;6.41;81.38
216;BME280;64590;48.81286795;9.14184224;2022-11-20T02:48:29;97784.69;;;6.39;81.57
216;BME280;64590;48.81286795;9.14184224;2022-11-20T02:50:56;97787.81;;;6.38;81.46
216;BME280;64590;48.81286795;9.14184224;2022-11-20T02:53:22;97780.25;;;6.72;81.18
216;BME280;64590;48.81286795;9.14184224;2022-11-20T02:55:49;97773.78;;;6.98;80.97
216;BME280;64590;48.81286795;9.14184224;2022-11-20T02:58:17;97783.44;;;6.77;81.27
216;BME280;64590;48.81286795;9.14184224;2022-11-20T03:00:44;97780.66;;;6.70;81.27
216;BME280;64590;48.81286795;9.14184224;2022-11-20T03:03:10;97789.00;;;6.81;79.93
216;BME280;64590;48.81286795;9.14184224;2022-11-20T03:05:37;97785.63;;;7.02;79.39
216;BME280;64590;48.81286795;9.14184224;2022-11-20T03:08:04;97781.59;;;6.92;78.55
216;BME280;64590;48.81286795;9.14184224;2022-11-20T03:10:30;97776.53;;;7.01;77.86
216;BME280;64590;48.81286795;9.14184224;2022-11-20T03:12:57;97779.69;;;7.00;77.43
216;BME280;64590;48.81286795;9.14184224;2022-11-20T03:15:25;97770.09;;;6.83;76.72
216;BME280;64590;48.81286795;9.14184224;2022-11-20T03:17:53;97777.06;;;6.66;77.44
216;BME280;64590;48.81286795;9.14184224;2022-11-20T03:20:20;97779.00;;;6.66;79.16
216;BME280;64590;48.81286795;9.14184224;2022-11-20T03:22:46;97775.22;;;6.81;78.40
216;BME280;64590;48.81286795;9.14184224;2022-11-20T03:25:13;97775.56;;;6.76;77.58
216;BME280;64590;48.81286795;9.14184224;2022-11-20T03:27:40;97766.53;;;6.79;76.57
216;BME280;64590;48.81286795;9.14184224;2022-11-20T03:30:08;97763.78;;;6.83;77.65
216;BME280;64590;48.81286795;9.14184224;2022-11-20T03:32:36;97757.69;;;6.59;76.65
216;BME280;64590;48.81286795;9.14184224;2022-11-20T03:35:03;97762.28;;;6.44;78.19
216;BME280;64590;48.81286795;9.14184224;2022-11-20T03:37:29;97766.66;;;6.49;78.38
216;BME280;64590;48.81286795;9.14184224;2022-11-20T03:39:56;97760.41;;;6.52;78.41
216;BME280;64590;48.81286795;9.14184224;2022-11-20T03:42:23;97762.38;;;6.51;78.17
216;BME280;64590;48.81286795;9.14184224;2022-11-20T03:45:07;97758.91;;;6.62;77.56
216;BME280;64590;48.81286795;9.14184224;2022-11-20T03:47:35;97756.00;;;6.47;77.65
216;BME280;64590;48.81286795;9.14184224;2022-11-20T03:50:03;97764.91;;;6.34;78.48
216;BME280;64590;48.81286795;9.14184224;2022-11-20T03:52:29;97746.63;;;6.52;78.23
216;BME280;64590;48.81286795;9.14184224;2022-11-20T03:54:56;97755.69;;;6.53;78.17
216;BME280;64590;48.81286795;9.14184224;2022-11-20T03:57:23;97757.56;;;6.45;78.69
216;BME280;64590;48.81286795;9.14184224;2022-11-20T03:59:49;97756.22;;;6.28;79.23
216;BME280;64590;48.81286795;9.14184224;2022-11-20T04:02:16;97763.56;;;6.54;77.17
216;BME280;64590;48.81286795;9.14184224;2022-11-20T04:04:44;97759.91;;;6.43;78.05
216;BME280;64590;48.81286795;9.14184224;2022-11-20T04:07:11;97755.06;;;6.33;78.89
216;BME280;64590;48.81286795;9.14184224;2022-11-20T04:09:37;97758.38;;;6.49;78.24
216;BME280;64590;48.81286795;9.14184224;2022-11-20T04:12:04;97755.22;;;6.47;78.88
216;BME280;64590;48.81286795;9.14184224;2022-11-20T04:14:31;97747.56;;;6.30;79.26
216;BME280;64590;48.81286795;9.14184224;2022-11-20T04:16:58;97746.00;;;6.29;79.63
216;BME280;64590;48.81286795;9.14184224;2022-11-20T04:19:24;97751.97;;;6.38;79.28
216;BME280;64590;48.81286795;9.14184224;2022-11-20T04:21:52;97744.97;;;6.44;80.13
216;BME280;64590;48.81286795;9.14184224;2022-11-20T04:24:19;97748.06;;;6.39;79.90
216;BME280;64590;48.81286795;9.14184224;2022-11-20T04:26:45;97741.44;;;6.47;80.21
216;BME280;64590;48.81286795;9.14184224;2022-11-20T04:29:12;97746.16;;;6.46;79.34
216;BME280;64590;48.81286795;9.14184224;2022-11-20T04:31:39;97742.34;;;6.62;79.29
216;BME280;64590;48.81286795;9.14184224;2022-11-20T04:34:07;97752.56;;;6.58;77.54
216;BME280;64590;48.81286795;9.14184224;2022-11-20T04:36:34;97751.34;;;6.55;78.93
216;BME280;64590;48.81286795;9.14184224;2022-11-20T04:39:04;97751.50;;;6.69;78.85
216;BME280;64590;48.81286795;9.14184224;2022-11-20T04:41:32;97750.66;;;6.69;77.67
216;BME280;64590;48.81286795;9.14184224;2022-11-20T04:44:01;97750.72;;;6.76;78.35
216;BME280;64590;48.81286795;9.14184224;2022-11-20T04:46:29;97742.75;;;6.64;79.13
216;BME280;64590;48.81286795;9.14184224;2022-11-20T04:48:57;97744.78;;;6.70;79.18
216;BME280;64590;48.81286795;9.14184224;2022-11-20T04:51:24;97738.50;;;6.73;78.90
216;BME280;64590;48.81286795;9.14184224;2022-11-20T04:53:51;97744.03;;;6.73;78.42
216;BME280;64590;48.81286795;9.14184224;2022-11-20T04:56:19;97742.06;;;6.74;78.27
216;BME280;64590;48.81286795;9.14184224;2022-11-20T04:58:45;97749.06;;;6.64;78.47
216;BME280;64590;48.81286795;9.14184224;2022-11-20T05:01:13;97741.56;;;6.61;79.07
216;BME280;64590;48.81286795;9.14184224;2022-11-20T05:03:41;97743.09;;;6.59;78.59
216;BME280;64590;48.81286795;9.14184224;2022-11-20T05:06:10;97741.56;;;6.61;77.96
216;BME280;64590;48.81286795;9.14184224;2022-11-20T05:08:37;97735.88;;;6.88;78.24
216;BME280;64590;48.81286795;9.14184224;2022-11-20T05:11:06;97746.78;;;6.73;79.00
216;BME280;64590;48.81286795;9.14184224;2022-11-20T05:13:34;97743.34;;;6.87;78.06
216;BME280;64590;48.81286795;9.14184224;2022-11-20T05:16:02;97737.72;;;6.73;77.62
216;BME280;64590;48.81286795;9.14184224;2022-11-20T05:18:28;97746.47;;;6.86;75.75
216;BME280;64590;48.81286795;9.14184224;2022-11-20T05:20:55;97738.91;;;6.75;76.43
216;BME280;64590;48.81286795;9.14184224;2022-11-20T05:23:22;97743.28;;;6.80;75.82
216;BME280;64590;48.81286795;9.14184224;2022-11-20T05:25:52;97745.59;;;6.74;77.40
216;BME280;64590;48.81286795;9.14184224;2022-11-20T05:28:18;97739.38;;;6.85;76.44
216;BME280;64590;48.81286795;9.14184224;2022-11-20T05:30:46;97745.00;;;6.99;76.24
216;BME280;64590;48.81286795;9.14184224;2022-11-20T05:33:13;97737.78;;;6.80;75.93
216;BME280;64590;48.81286795;9.14184224;2022-11-20T05:35:40;97755.44;;;6.72;75.87
216;BME280;64590;48.81286795;9.14184224;2022-11-20T05:38:07;97745.69;;;6.85;75.80
216;BME280;64590;48.81286795;9.14184224;2022-11-20T05:40:34;97741.75;;;6.86;75.58
216;BME280;64590;48.81286795;9.14184224;2022-11-20T05:43:00;97741.34;;;6.84;75.64
216;BME280;64590;48.81286795;9.14184224;2022-11-20T05:45:28;97744.88;;;6.81;75.47
216;BME280;64590;48.81286795;9.14184224;2022-11-20T05:47:58;97745.25;;;6.79;76.68
216;BME280;64590;48.81286795;9.14184224;2022-11-20T05:50:26;97738.91;;;6.75;77.00
216;BME280;64590;48.81286795;9.14184224;2022-11-20T05:52:53;97739.50;;;6.99;76.65
216;BME280;64590;48.81286795;9.14184224;2022-11-20T05:55:19;97744.53;;;6.90;76.66
216;BME280;64590;48.81286795;9.14184224;2022-11-20T05:57:46;97746.13;;;6.91;75.87
216;BME280;64590;48.81286795;9.14184224;2022-11-20T06:00:14;97743.72;;;6.86;76.62
216;BME280;64590;48.81286795;9.14184224;2022-11-20T06:02:40;97737.13;;;6.97;74.81
216;BME280;64590;48.81286795;9.14184224;2022-11-20T06:05:09;97738.25;;;6.89;75.28
216;BME280;64590;48.81286795;9.14184224;2022-11-20T06:07:35;97737.78;;;6.80;75.38
216;BME280;64590;48.81286795;9.14184224;2022-11-20T06:10:02;97744.88;;;6.85;75.95
216;BME280;64590;48.81286795;9.14184224;2022-11-20T06:12:31;97745.34;;;6.90;75.42
216;BME280;64590;48.81286795;9.14184224;2022-11-20T06:14:58;97743.38;;;6.91;75.63
216;BME280;64590;48.81286795;9.14184224;2022-11-20T06:17:24;97746.13;;;6.94;75.63
216;BME280;64590;48.81286795;9.14184224;2022-11-20T06:19:51;97736.06;;;7.16;75.62
216;BME280;64590;48.81286795;9.14184224;2022-11-20T06:22:19;97731.25;;;7.06;74.74
216;BME280;64590;48.81286795;9.14184224;2022-11-20T06:24:45;97731.19;;;6.95;75.07
216;BME280;64590;48.81286795;9.14184224;2022-11-20T06:27:12;97729.91;;;6.86;76.43
216;BME280;64590;48.81286795;9.14184224;2022-11-20T06:29:39;97729.25;;;7.03;75.47
216;BME280;64590;48.81286795;9.14184224;2022-11-20T06:32:05;97730.75;;;6.93;75.30
216;BME280;64590;48.81286795;9.14184224;2022-11-20T06:34:32;97702.25;;;6.75;75.35
216;BME280;64590;48.81286795;9.14184224;2022-11-20T06:36:59;97723.59;;;6.82;75.19
216;BME280;64590;48.81286795;9.14184224;2022-11-20T06:39:27;97729.50;;;6.80;75.83
216;BME280;64590;48.81286795;9.14184224;2022-11-20T06:41:53;97724.06;;;6.91;76.35
216;BME280;64590;48.81286795;9.14184224;2022-11-20T06:44:20;97724.44;;;6.89;75.13
216;BME280;64590;48.81286795;9.14184224;2022-11-20T06:46:46;97735.56;;;7.03;75.06
216;BME280;64590;48.81286795;9.14184224;2022-11-20T06:49:13;97737.03;;;6.87;76.27
216;BME280;64590;48.81286795;9.14184224;2022-11-20T06:51:40;97727.28;;;7.03;76.13
216;BME280;64590;48.81286795;9.14184224;2022-11-20T06:54:06;97728.09;;;7.04;75.20
216;BME280;64590;48.81286795;9.14184224;2022-11-20T06:56:34;97736.28;;;6.93;74.81
216;BME280;64590;48.81286795;9.14184224;2022-11-20T06:59:03;97740.22;;;6.92;74.48
216;BME280;64590;48.81286795;9.14184224;2022-11-20T07:01:30;97738.97;;;6.79;75.62
216;BME280;64590;48.81286795;9.14184224;2022-11-20T07:03:57;97740.25;;;6.96;74.52
216;BME280;64590;48.81286795;9.14184224;2022-11-20T07:06:23;97739.03;;;6.93;74.72
216;BME280;64590;48.81286795;9.14184224;2022-11-20T07:08:50;97737.41;;;6.85;74.89
216;BME280;64590;48.81286795;9.14184224;2022-11-20T07:11:17;97734.31;;;6.90;75.56
216;BME280;64590;48.81286795;9.14184224;2022-11-20T07:13:45;97737.91;;;7.01;75.32
216;BME280;64590;48.81286795;9.14184224;2022-11-20T07:16:12;97744.22;;;7.02;73.77
216;BME280;64590;48.81286795;9.14184224;2022-11-20T07:18:38;97737.88;;;6.94;74.63
216;BME280;64590;48.81286795;9.14184224;2022-11-20T07:21:07;97748.91;;;6.94;75.02
216;BME280;64590;48.81286795;9.14184224;2022-11-20T07:23:34;97739.50;;;6.99;74.49
216;BME280;64590;48.81286795;9.14184224;2022-11-20T07:26:03;97742.22;;;6.95;74.38
216;BME280;64590;48.81286795;9.14184224;2022-11-20T07:28:29;97744.56;;;6.93;74.60
216;BME280;64590;48.81286795;9.14184224;2022-11-20T07:30:57;97745.66;;;6.82;75.38
216;BME280;64590;48.81286795;9.14184224;2022-11-20T07:33:24;97754.38;;;6.87;74.84
216;BME280;64590;48.81286795;9.14184224;2022-11-20T07:35:51;97755.19;;;6.91;75.08
216;BME280;64590;48.81286795;9.14184224;2022-11-20T07:38:17;97754.47;;;7.01;74.60
216;BME280;64590;48.81286795;9.14184224;2022-11-20T07:40:44;97755.03;;;7.21;74.60
216;BME280;64590;48.81286795;9.14184224;2022-11-20T07:43:10;97756.66;;;7.33;73.89
216;BME280;64590;48.81286795;9.14184224;2022-11-20T07:45:37;97753.41;;;7.20;74.72
216;BME280;64590;48.81286795;9.14184224;2022-11-20T07:48:05;97755.88;;;7.36;76.30
216;BME280;64590;48.81286795;9.14184224;2022-11-20T07:50:32;97759.44;;;7.33;75.66
216;BME280;64590;48.81286795;9.14184224;2022-11-20T07:53:03;97758.91;;;7.13;76.54
216;BME280;64590;48.81286795;9.14184224;2022-11-20T07:55:30;97738.03;;;7.16;75.06
216;BME280;64590;48.81286795;9.14184224;2022-11-20T07:57:56;97762.81;;;7.12;75.77
216;BME280;64590;48.81286795;9.14184224;2022-11-20T08:00:24;97765.22;;;7.14;76.05
216;BME280;64590;48.81286795;9.14184224;2022-11-20T08:02:51;97758.53;;;7.18;75.41
216;BME280;64590;48.81286795;9.14184224;2022-11-20T08:05:19;97767.53;;;7.08;75.99
216;BME280;64590;48.81286795;9.14184224;2022-11-20T08:07:46;97777.50;;;7.23;75.77
216;BME280;64590;48.81286795;9.14184224;2022-11-20T08:10:14;97771.59;;;7.21;76.19
216;BME280;64590;48.81286795;9.14184224;2022-11-20T08:12:45;97775.94;;;7.26;76.18
216;BME280;64590;48.81286795;9.14184224;2022-11-20T08:15:29;97778.81;;;7.44;75.92
216;BME280;64590;48.81286795;9.14184224;2022-11-20T08:18:00;97784.38;;;7.47;76.11
216;BME280;64590;48.81286795;9.14184224;2022-11-20T08:20:28;97787.03;;;7.36;75.12
216;BME280;64590;48.81286795;9.14184224;2022-11-20T08:22:59;97787.47;;;7.42;75.76
216;BME280;64590;48.81286795;9.14184224;2022-11-20T08:25:27;97781.97;;;7.42;75.79
216;BME280;64590;48.81286795;9.14184224;2022-11-20T08:27:54;97784.41;;;7.58;75.32
216;BME280;64590;48.81286795;9.14184224;2022-11-20T08:30:22;97786.69;;;7.45;75.12
216;BME280;64590;48.81286795;9.14184224;2022-11-20T08:32:49;97782.75;;;7.46;75.27
216;BME280;64590;48.81286795;9.14184224;2022-11-20T08:35:16;97781.22;;;7.49;75.67
216;BME280;64590;48.81286795;9.14184224;2022-11-20T08:37:45;97789.19;;;7.68;75.12
216;BME280;64590;48.81286795;9.14184224;2022-11-20T08:40:13;97786.91;;;7.84;75.04
216;BME280;64590;48.81286795;9.14184224;2022-11-20T08:42:46;97788.09;;;7.87;73.63
216;BME280;64590;48.81286795;9.14184224;2022-11-20T08:45:12;97788.53;;;7.92;74.19
216;BME280;64590;48.81286795;9.14184224;2022-11-20T08:47:39;97786.53;;;7.89;74.59
216;BME280;64590;48.81286795;9.14184224;2022-11-20T08:50:07;97788.94;;;7.91;74.81
216;BME280;64590;48.81286795;9.14184224;2022-11-20T08:52:34;97793.28;;;7.96;74.66
216;BME280;64590;48.81286795;9.14184224;2022-11-20T08:55:02;97787.38;;;8.01;72.61
216;BME280;64590;48.81286795;9.14184224;2022-11-20T08:57:31;97795.25;;;7.91;73.59
216;BME280;64590;48.81286795;9.14184224;2022-11-20T08:59:58;97802.34;;;7.92;72.69
216;BME280;64590;48.81286795;9.14184224;2022-11-20T09:02:25;97809.06;;;7.91;73.58
216;BME280;64590;48.81286795;9.14184224;2022-11-20T09:04:52;97803.09;;;7.82;73.24
216;BME280;64590;48.81286795;9.14184224;2022-11-20T09:07:19;97807.91;;;8.00;73.31
216;BME280;64590;48.81286795;9.14184224;2022-11-20T09:09:46;97802.38;;;8.03;73.58
216;BME280;64590;48.81286795;9.14184224;2022-11-20T09:12:14;97805.56;;;8.12;72.41
216;BME280;64590;48.81286795;9.14184224;2022-11-20T09:14:41;97808.75;;;8.18;72.75
216;BME280;64590;48.81286795;9.14184224;2022-11-20T09:17:09;97811.91;;;8.09;72.79
216;BME280;64590;48.81286795;9.14184224;2022-11-20T09:19:39;97808.38;;;8.19;72.82
216;BME280;64590;48.81286795;9.14184224;2022-11-20T09:22:06;97807.56;;;8.15;73.58
216;BME280;64590;48.81286795;9.14184224;2022-11-20T09:24:33;97802.44;;;8.17;72.62
216;BME280;64590;48.81286795;9.14184224;2022-11-20T09:27:02;97817.41;;;8.13;73.37
216;BME280;64590;48.81286795;9.14184224;2022-11-20T09:29:30;97813.09;;;8.15;72.62
216;BME280;64590;48.81286795;9.14184224;2022-11-20T09:31:56;97818.22;;;8.13;73.12
216;BME280;64590;48.81286795;9.14184224;2022-11-20T09:34:23;97826.44;;;7.99;73.50
216;BME280;64590;48.81286795;9.14184224;2022-11-20T09:36:50;97822.09;;;7.98;73.63
216;BME280;64590;48.81286795;9.14184224;2022-11-20T09:39:16;97831.59;;;8.01;74.02
216;BME280;64590;48.81286795;9.14184224;2022-11-20T09:41:59;97832.00;;;8.03;73.53
216;BME280;64590;48.81286795;9.14184224;2022-11-20T09:44:39;97827.56;;;7.84;73.85
216;BME280;64590;48.81286795;9.14184224;2022-11-20T09:47:14;97830.72;;;7.82;72.83
216;BME280;64590;48.81286795;9.14184224;2022-11-20T09:49:56;97831.91;;;7.85;73.78
216;BME280;64590;48.81286795;9.14184224;2022-11-20T09:52:33;97840.25;;;7.96;73.75
216;BME280;64590;48.81286795;9.14184224;2022-11-20T09:55:06;97837.44;;;7.88;74.05
216;BME280;64590;48.81286795;9.14184224;2022-11-20T09:57:38;97844.56;;;7.89;74.14
216;BME280;64590;48.81286795;9.14184224;2022-11-20T10:00:11;97827.97;;;7.89;74.04
216;BME280;64590;48.81286795;9.14184224;2022-11-20T10:02:42;97827.97;;;7.89;73.47
216;BME280;64590;48.81286795;9.14184224;2022-11-20T10:05:17;97824.84;;;7.91;74.55
216;BME280;64590;48.81286795;9.14184224;2022-11-20T10:07:48;97837.09;;;7.93;73.51
216;BME280;64590;48.81286795;9.14184224;2022-11-20T10:10:29;97831.03;;;7.70;74.96
216;BME280;64590;48.81286795;9.14184224;2022-11-20T10:13:11;97836.25;;;7.82;74.44
216;BME280;64590;48.81286795;9.14184224;2022-11-20T10:15:49;97838.63;;;7.84;74.39
216;BME280;64590;48.81286795;9.14184224;2022-11-20T10:18:28;97842.13;;;7.74;76.76
216;BME280;64590;48.81286795;9.14184224;2022-11-20T10:21:05;97835.41;;;7.75;75.63
216;BME280;64590;48.81286795;9.14184224;2022-11-20T10:23:54;97846.09;;;7.80;76.44
216;BME280;64590;48.81286795;9.14184224;2022-11-20T10:26:31;97853.94;;;7.71;77.41
216;BME280;64590;48.81286795;9.14184224;2022-11-20T10:29:10;97851.78;;;7.46;78.58
216;BME280;64590;48.81286795;9.14184224;2022-11-20T10:31:40;97854.53;;;7.43;80.75
216;BME280;64590;48.81286795;9.14184224;2022-11-20T10:34:15;97832.72;;;7.23;82.24
216;BME280;64590;48.81286795;9.14184224;2022-11-20T10:36:46;97850.88;;;7.28;82.04
216;BME280;64590;48.81286795;9.14184224;2022-11-20T10:39:19;97849.69;;;7.29;82.96
216;BME280;64590;48.81286795;9.14184224;2022-11-20T10:41:50;97849.00;;;7.39;82.72
216;BME280;64590;48.81286795;9.14184224;2022-11-20T10:44:20;97851.06;;;7.53;82.52
216;BME280;64590;48.81286795;9.14184224;2022-11-20T10:47:12;97839.03;;;7.27;82.92
216;BME280;64590;48.81286795;9.14184224;2022-11-20T10:49:41;97848.81;;;7.18;81.93
216;BME280;64590;48.81286795;9.14184224;2022-11-20T10:52:12;97838.50;;;7.11;82.55
216;BME280;64590;48.81286795;9.14184224;2022-11-20T10:54:47;97837.13;;;7.35;83.13
216;BME280;64590;48.81286795;9.14184224;2022-11-20T10:57:25;97832.38;;;7.35;84.66
216;BME280;64590;48.81286795;9.14184224;2022-11-20T11:00:00;97821.34;;;7.32;85.28
216;BME280;64590;48.81286795;9.14184224;2022-11-20T11:02:35;97835.31;;;7.57;83.46
216;BME280;64590;48.81286795;9.14184224;2022-11-20T11:05:16;97831.03;;;7.67;83.80
216;BME280;64590;48.81286795;9.14184224;2022-11-20T11:07:45;97840.84;;;7.60;83.77
216;BME280;64590;48.81286795;9.14184224;2022-11-20T11:10:15;97834.47;;;7.53;83.89
216;BME280;64590;48.81286795;9.14184224;2022-11-20T11:12:44;97812.00;;;7.51;85.01
216;BME280;64590;48.81286795;9.14184224;2022-11-20T11:15:14;97833.97;;;7.36;83.96
216;BME280;64590;48.81286795;9.14184224;2022-11-20T11:17:47;97821.91;;;7.59;84.84
216;BME280;64590;48.81286795;9.14184224;2022-11-20T11:20:18;97813.28;;;7.68;82.98
216;BME280;64590;48.81286795;9.14184224;2022-11-20T11:22:46;97807.72;;;7.64;84.21
216;BME280;64590;48.81286795;9.14184224;2022-11-20T11:25:22;97801.53;;;7.85;83.58
216;BME280;64590;48.81286795;9.14184224;2022-11-20T11:27:50;97796.81;;;7.96;83.93
216;BME280;64590;48.81286795;9.14184224;2022-11-20T11:30:19;97794.56;;;8.30;82.40
216;BME280;64590;48.81286795;9.14184224;2022-11-20T11:32:47;97795.41;;;8.41;82.19
216;BME280;64590;48.81286795;9.14184224;2022-11-20T11:35:22;97788.31;;;8.40;81.73
216;BME280;64590;48.81286795;9.14184224;2022-11-20T11:37:50;97784.00;;;8.57;80.68
216;BME280;64590;48.81286795;9.14184224;2022-11-20T11:40:21;97786.38;;;8.55;80.98
216;BME280;64590;48.81286795;9.14184224;2022-11-20T11:42:53;97783.22;;;8.85;81.34
216;BME280;64590;48.81286795;9.14184224;2022-11-20T11:45:21;97780.06;;;8.90;79.83
216;BME280;64590;48.81286795;9.14184224;2022-11-20T11:47:50;97770.19;;;8.96;79.41
216;BME280;64590;48.81286795;9.14184224;2022-11-20T11:50:21;97754.75;;;8.99;77.33
216;BME280;64590;48.81286795;9.14184224;2022-11-20T11:52:55;97764.66;;;9.00;76.83
216;BME280;64590;48.81286795;9.14184224;2022-11-20T11:55:29;97765.06;;;8.95;77.95
216;BME280;64590;48.81286795;9.14184224;2022-11-20T11:58:04;97764.25;;;8.87;76.54
216;BME280;64590;48.81286795;9.14184224;2022-11-20T12:00:35;97764.66;;;9.07;76.58
216;BME280;64590;48.81286795;9.14184224;2022-11-20T12:03:18;97756.69;;;9.27;76.50